sensor_id;sensor_type;location;lat;lon;timestamp;temperature;humidity
78479;SHT31;67769;51.972;5.668;2023-04-01T00:02:19;13.9;70.7
78479;SHT31;67769;51.972;5.668;2023-04-01T00:04:48;14.0;70.7
78479;SHT31;67769;51.972;5.668;2023-04-01T00:07:18;14.0;70.4
78479;SHT31;67769;51.972;5.668;2023-04-01T00:09:50;14.0;70.6
78479;SHT31;67769;51.972;5.668;2023-04-01T00:12:20;14.0;70.4
78479;SHT31;67769;51.972;5.668;2023-04-01T00:14:52;14.0;70.0
78479;SHT31;67769;51.972;5.668;2023-04-01T00:17:22;14.0;70.1
78479;SHT31;67769;51.972;5.668;2023-04-01T00:19:54;14.0;70.2
78479;SHT31;67769;51.972;5.668;2023-04-01T00:22:25;14.0;69.9
78479;SHT31;67769;51.972;5.668;2023-04-01T00:24:54;14.0;70.3
78479;SHT31;67769;51.972;5.668;2023-04-01T00:27:24;14.0;70.1
78479;SHT31;67769;51.972;5.668;2023-04-01T00:29:54;14.0;69.9
78479;SHT31;67769;51.972;5.668;2023-04-01T00:32:25;14.0;70.1
78479;SHT31;67769;51.972;5.668;2023-04-01T00:34:56;13.9;70.2
78479;SHT31;67769;51.972;5.668;2023-04-01T00:37:27;13.9;70.3
78479;SHT31;67769;51.972;5.668;2023-04-01T00:39:57;13.9;70.5
78479;SHT31;67769;51.972;5.668;2023-04-01T00:42:28;13.9;70.4
78479;SHT31;67769;51.972;5.668;2023-04-01T00:45:21;13.9;70.6
78479;SHT31;67769;51.972;5.668;2023-04-01T00:47:34;13.9;70.8
78479;SHT31;67769;51.972;5.668;2023-04-01T00:50:07;13.9;70.5
78479;SHT31;67769;51.972;5.668;2023-04-01T00:52:37;13.9;70.5
78479;SHT31;67769;51.972;5.668;2023-04-01T00:55:14;13.9;70.8
78479;SHT31;67769;51.972;5.668;2023-04-01T00:57:51;14.0;70.7
78479;SHT31;67769;51.972;5.668;2023-04-01T01:00:23;13.9;70.9
78479;SHT31;67769;51.972;5.668;2023-04-01T01:02:53;13.9;70.8
78479;SHT31;67769;51.972;5.668;2023-04-01T01:05:33;13.9;70.9
78479;SHT31;67769;51.972;5.668;2023-04-01T01:08:13;13.9;70.9
78479;SHT31;67769;51.972;5.668;2023-04-01T01:10:49;13.9;71.0
78479;SHT31;67769;51.972;5.668;2023-04-01T01:13:29;13.9;71.1
78479;SHT31;67769;51.972;5.668;2023-04-01T01:16:09;13.9;71.3
78479;SHT31;67769;51.972;5.668;2023-04-01T01:18:50;13.9;71.2
78479;SHT31;67769;51.972;5.668;2023-04-01T01:22:06;13.9;71.2
78479;SHT31;67769;51.972;5.668;2023-04-01T01:26:19;13.9;70.9
78479;SHT31;67769;51.972;5.668;2023-04-01T01:29:04;13.9;71.0
78479;SHT31;67769;51.972;5.668;2023-04-01T01:31:47;13.9;70.7
78479;SHT31;67769;51.972;5.668;2023-04-01T01:34:24;13.9;70.1
78479;SHT31;67769;51.972;5.668;2023-04-01T01:37:01;13.9;69.9
78479;SHT31;67769;51.972;5.668;2023-04-01T01:39:34;13.9;69.8
78479;SHT31;67769;51.972;5.668;2023-04-01T01:42:09;13.8;69.9
78479;SHT31;67769;51.972;5.668;2023-04-01T01:44:43;13.8;69.9
78479;SHT31;67769;51.972;5.668;2023-04-01T01:47:17;13.8;69.6
78479;SHT31;67769;51.972;5.668;2023-04-01T01:49:49;13.8;70.0
78479;SHT31;67769;51.972;5.668;2023-04-01T01:52:21;13.9;69.9
78479;SHT31;67769;51.972;5.668;2023-04-01T01:54:54;13.9;69.2
78479;SHT31;67769;51.972;5.668;2023-04-01T01:57:29;13.9;69.5
78479;SHT31;67769;51.972;5.668;2023-04-01T02:00:04;14.0;68.7
78479;SHT31;67769;51.972;5.668;2023-04-01T02:02:38;14.0;68.3
78479;SHT31;67769;51.972;5.668;2023-04-01T02:05:15;14.0;68.4
78479;SHT31;67769;51.972;5.668;2023-04-01T02:07:57;14.0;68.3
78479;SHT31;67769;51.972;5.668;2023-04-01T02:10:37;14.0;68.9
78479;SHT31;67769;51.972;5.668;2023-04-01T02:13:17;14.1;68.5
78479;SHT31;67769;51.972;5.668;2023-04-01T02:15:52;14.2;68.6
78479;SHT31;67769;51.972;5.668;2023-04-01T02:18:25;14.2;67.8
78479;SHT31;67769;51.972;5.668;2023-04-01T02:20:57;14.2;67.9
78479;SHT31;67769;51.972;5.668;2023-04-01T02:23:31;14.2;68.0
78479;SHT31;67769;51.972;5.668;2023-04-01T02:26:02;14.1;68.3
78479;SHT31;67769;51.972;5.668;2023-04-01T02:28:34;14.1;68.6
78479;SHT31;67769;51.972;5.668;2023-04-01T02:31:09;14.1;68.7
78479;SHT31;67769;51.972;5.668;2023-04-01T02:33:40;14.1;68.5
78479;SHT31;67769;51.972;5.668;2023-04-01T02:36:13;14.0;68.6
78479;SHT31;67769;51.972;5.668;2023-04-01T02:38:45;14.0;68.6
78479;SHT31;67769;51.972;5.668;2023-04-01T02:41:16;14.0;68.7
78479;SHT31;67769;51.972;5.668;2023-04-01T02:43:48;13.9;68.9
78479;SHT31;67769;51.972;5.668;2023-04-01T02:46:18;13.9;69.6
78479;SHT31;67769;51.972;5.668;2023-04-01T02:48:48;13.9;69.4
78479;SHT31;67769;51.972;5.668;2023-04-01T02:51:17;13.9;69.3
78479;SHT31;67769;51.972;5.668;2023-04-01T02:53:47;13.8;69.6
78479;SHT31;67769;51.972;5.668;2023-04-01T02:56:16;13.8;69.4
78479;SHT31;67769;51.972;5.668;2023-04-01T02:58:47;13.8;69.3
78479;SHT31;67769;51.972;5.668;2023-04-01T03:01:18;13.8;69.4
78479;SHT31;67769;51.972;5.668;2023-04-01T03:03:47;13.7;69.5
78479;SHT31;67769;51.972;5.668;2023-04-01T03:06:18;13.7;69.7
78479;SHT31;67769;51.972;5.668;2023-04-01T03:08:47;13.7;69.8
78479;SHT31;67769;51.972;5.668;2023-04-01T03:11:17;13.7;69.5
78479;SHT31;67769;51.972;5.668;2023-04-01T03:13:47;13.6;69.6
78479;SHT31;67769;51.972;5.668;2023-04-01T03:16:16;13.6;69.9
78479;SHT31;67769;51.972;5.668;2023-04-01T03:18:46;13.6;69.7
78479;SHT31;67769;51.972;5.668;2023-04-01T03:21:20;13.6;69.9
78479;SHT31;67769;51.972;5.668;2023-04-01T03:23:50;13.6;70.0
78479;SHT31;67769;51.972;5.668;2023-04-01T03:26:20;13.5;69.7
78479;SHT31;67769;51.972;5.668;2023-04-01T03:28:50;13.5;70.3
78479;SHT31;67769;51.972;5.668;2023-04-01T03:31:20;13.5;70.1
78479;SHT31;67769;51.972;5.668;2023-04-01T03:33:49;13.4;70.3
78479;SHT31;67769;51.972;5.668;2023-04-01T03:36:21;13.4;70.1
78479;SHT31;67769;51.972;5.668;2023-04-01T03:38:51;13.4;70.8
78479;SHT31;67769;51.972;5.668;2023-04-01T03:41:20;13.4;70.5
78479;SHT31;67769;51.972;5.668;2023-04-01T03:43:50;13.4;70.7
78479;SHT31;67769;51.972;5.668;2023-04-01T03:46:20;13.4;70.4
78479;SHT31;67769;51.972;5.668;2023-04-01T03:48:50;13.4;70.5
78479;SHT31;67769;51.972;5.668;2023-04-01T03:51:19;13.4;70.3
78479;SHT31;67769;51.972;5.668;2023-04-01T03:53:49;13.4;70.7
78479;SHT31;67769;51.972;5.668;2023-04-01T03:56:19;13.4;70.8
78479;SHT31;67769;51.972;5.668;2023-04-01T03:58:49;13.4;70.3
78479;SHT31;67769;51.972;5.668;2023-04-01T04:01:21;13.4;70.4
78479;SHT31;67769;51.972;5.668;2023-04-01T04:03:51;13.4;70.4
78479;SHT31;67769;51.972;5.668;2023-04-01T04:06:20;13.5;70.5
78479;SHT31;67769;51.972;5.668;2023-04-01T04:08:50;13.5;70.4
78479;SHT31;67769;51.972;5.668;2023-04-01T04:11:21;13.5;70.2
78479;SHT31;67769;51.972;5.668;2023-04-01T04:13:50;13.5;70.2
78479;SHT31;67769;51.972;5.668;2023-04-01T04:16:20;13.4;70.3
78479;SHT31;67769;51.972;5.668;2023-04-01T04:18:50;13.4;70.2
78479;SHT31;67769;51.972;5.668;2023-04-01T04:21:20;13.4;70.7
78479;SHT31;67769;51.972;5.668;2023-04-01T04:23:49;13.4;70.6
78479;SHT31;67769;51.972;5.668;2023-04-01T04:26:20;13.4;70.8
78479;SHT31;67769;51.972;5.668;2023-04-01T04:28:50;13.3;71.2
78479;SHT31;67769;51.972;5.668;2023-04-01T04:31:21;13.3;71.3
78479;SHT31;67769;51.972;5.668;2023-04-01T04:33:52;13.3;71.0
78479;SHT31;67769;51.972;5.668;2023-04-01T04:36:22;13.3;71.2
78479;SHT31;67769;51.972;5.668;2023-04-01T04:38:52;13.3;71.4
78479;SHT31;67769;51.972;5.668;2023-04-01T04:41:21;13.3;71.4
78479;SHT31;67769;51.972;5.668;2023-04-01T04:43:53;13.3;71.8
78479;SHT31;67769;51.972;5.668;2023-04-01T04:46:24;13.2;71.6
78479;SHT31;67769;51.972;5.668;2023-04-01T04:48:57;13.2;71.6
78479;SHT31;67769;51.972;5.668;2023-04-01T04:51:27;13.3;71.9
78479;SHT31;67769;51.972;5.668;2023-04-01T04:53:56;13.3;71.9
78479;SHT31;67769;51.972;5.668;2023-04-01T04:56:26;13.3;71.8
78479;SHT31;67769;51.972;5.668;2023-04-01T04:58:57;13.3;72.0
78479;SHT31;67769;51.972;5.668;2023-04-01T05:01:28;13.3;71.9
78479;SHT31;67769;51.972;5.668;2023-04-01T05:03:57;13.2;72.1
78479;SHT31;67769;51.972;5.668;2023-04-01T05:06:27;13.2;72.9
78479;SHT31;67769;51.972;5.668;2023-04-01T05:08:58;13.2;72.4
78479;SHT31;67769;51.972;5.668;2023-04-01T05:11:28;13.2;72.8
78479;SHT31;67769;51.972;5.668;2023-04-01T05:13:59;13.2;72.4
78479;SHT31;67769;51.972;5.668;2023-04-01T05:16:29;13.2;72.6
78479;SHT31;67769;51.972;5.668;2023-04-01T05:18:58;13.2;73.3
78479;SHT31;67769;51.972;5.668;2023-04-01T05:21:28;13.2;74.0
78479;SHT31;67769;51.972;5.668;2023-04-01T05:23:58;13.2;74.4
78479;SHT31;67769;51.972;5.668;2023-04-01T05:26:27;13.3;73.8
78479;SHT31;67769;51.972;5.668;2023-04-01T05:28:58;13.3;75.2
78479;SHT31;67769;51.972;5.668;2023-04-01T05:31:28;13.4;74.1
78479;SHT31;67769;51.972;5.668;2023-04-01T05:33:58;13.6;73.1
78479;SHT31;67769;51.972;5.668;2023-04-01T05:36:28;13.7;72.8
78479;SHT31;67769;51.972;5.668;2023-04-01T05:38:57;13.8;71.7
78479;SHT31;67769;51.972;5.668;2023-04-01T05:41:27;13.8;71.5
78479;SHT31;67769;51.972;5.668;2023-04-01T05:43:57;13.8;71.8
78479;SHT31;67769;51.972;5.668;2023-04-01T05:46:26;13.8;72.0
78479;SHT31;67769;51.972;5.668;2023-04-01T05:48:56;13.8;71.5
78479;SHT31;67769;51.972;5.668;2023-04-01T05:51:28;13.9;72.4
78479;SHT31;67769;51.972;5.668;2023-04-01T05:53:57;13.9;71.8
78479;SHT31;67769;51.972;5.668;2023-04-01T05:56:27;13.9;71.9
78479;SHT31;67769;51.972;5.668;2023-04-01T05:58:56;14.0;72.0
78479;SHT31;67769;51.972;5.668;2023-04-01T06:01:26;14.0;71.4
78479;SHT31;67769;51.972;5.668;2023-04-01T06:03:58;14.0;71.2
78479;SHT31;67769;51.972;5.668;2023-04-01T06:06:29;14.0;71.6
78479;SHT31;67769;51.972;5.668;2023-04-01T06:09:10;14.0;71.6
78479;SHT31;67769;51.972;5.668;2023-04-01T06:11:55;14.0;71.7
78479;SHT31;67769;51.972;5.668;2023-04-01T06:14:37;14.0;71.3
78479;SHT31;67769;51.972;5.668;2023-04-01T06:17:41;14.0;72.2
78479;SHT31;67769;51.972;5.668;2023-04-01T06:20:11;14.1;71.8
78479;SHT31;67769;51.972;5.668;2023-04-01T06:22:52;14.1;71.5
78479;SHT31;67769;51.972;5.668;2023-04-01T06:25:45;14.1;71.0
78479;SHT31;67769;51.972;5.668;2023-04-01T06:29:46;14.1;71.8
78479;SHT31;67769;51.972;5.668;2023-04-01T06:32:48;14.1;71.2
78479;SHT31;67769;51.972;5.668;2023-04-01T06:35:34;14.1;71.2
78479;SHT31;67769;51.972;5.668;2023-04-01T06:38:57;14.2;71.5
78479;SHT31;67769;51.972;5.668;2023-04-01T06:41:55;14.1;71.7
78479;SHT31;67769;51.972;5.668;2023-04-01T06:44:40;14.2;72.4
78479;SHT31;67769;51.972;5.668;2023-04-01T06:47:25;14.2;72.2
78479;SHT31;67769;51.972;5.668;2023-04-01T06:50:07;14.2;72.5
78479;SHT31;67769;51.972;5.668;2023-04-01T06:52:52;14.2;71.6
78479;SHT31;67769;51.972;5.668;2023-04-01T06:55:34;14.3;72.0
78479;SHT31;67769;51.972;5.668;2023-04-01T06:58:13;14.3;72.4
78479;SHT31;67769;51.972;5.668;2023-04-01T07:00:50;14.3;72.9
78479;SHT31;67769;51.972;5.668;2023-04-01T07:03:32;14.3;70.9
78479;SHT31;67769;51.972;5.668;2023-04-01T07:06:05;14.3;71.7
78479;SHT31;67769;51.972;5.668;2023-04-01T07:08:41;14.3;72.0
78479;SHT31;67769;51.972;5.668;2023-04-01T07:11:21;14.4;71.2
78479;SHT31;67769;51.972;5.668;2023-04-01T07:13:58;14.4;71.4
78479;SHT31;67769;51.972;5.668;2023-04-01T07:16:32;14.4;71.0
78479;SHT31;67769;51.972;5.668;2023-04-01T07:19:10;14.4;71.8
78479;SHT31;67769;51.972;5.668;2023-04-01T07:21:46;14.4;70.4
78479;SHT31;67769;51.972;5.668;2023-04-01T07:24:26;14.5;70.9
78479;SHT31;67769;51.972;5.668;2023-04-01T07:26:57;14.5;70.8
78479;SHT31;67769;51.972;5.668;2023-04-01T07:29:27;14.5;71.3
78479;SHT31;67769;51.972;5.668;2023-04-01T07:32:19;14.5;70.7
78479;SHT31;67769;51.972;5.668;2023-04-01T07:34:57;14.5;70.8
78479;SHT31;67769;51.972;5.668;2023-04-01T07:37:36;14.5;70.3
78479;SHT31;67769;51.972;5.668;2023-04-01T07:40:21;14.5;70.6
78479;SHT31;67769;51.972;5.668;2023-04-01T07:43:03;14.6;70.2
78479;SHT31;67769;51.972;5.668;2023-04-01T07:45:40;14.6;70.2
78479;SHT31;67769;51.972;5.668;2023-04-01T07:48:23;14.6;70.1
78479;SHT31;67769;51.972;5.668;2023-04-01T07:51:00;14.6;70.3
78479;SHT31;67769;51.972;5.668;2023-04-01T07:53:38;14.6;69.8
78479;SHT31;67769;51.972;5.668;2023-04-01T07:56:11;14.6;69.8
78479;SHT31;67769;51.972;5.668;2023-04-01T07:58:54;14.6;69.9
78479;SHT31;67769;51.972;5.668;2023-04-01T08:01:33;14.6;70.2
78479;SHT31;67769;51.972;5.668;2023-04-01T08:04:23;14.6;69.5
78479;SHT31;67769;51.972;5.668;2023-04-01T08:07:03;14.6;69.0
78479;SHT31;67769;51.972;5.668;2023-04-01T08:09:45;14.6;69.0
78479;SHT31;67769;51.972;5.668;2023-04-01T08:12:31;14.6;69.2
78479;SHT31;67769;51.972;5.668;2023-04-01T08:15:11;14.6;69.7
78479;SHT31;67769;51.972;5.668;2023-04-01T08:18:02;14.6;69.6
78479;SHT31;67769;51.972;5.668;2023-04-01T08:20:38;14.5;70.0
78479;SHT31;67769;51.972;5.668;2023-04-01T08:23:16;14.5;70.7
78479;SHT31;67769;51.972;5.668;2023-04-01T08:25:51;14.6;70.9
78479;SHT31;67769;51.972;5.668;2023-04-01T08:28:29;14.6;70.4
78479;SHT31;67769;51.972;5.668;2023-04-01T08:31:05;14.6;70.2
78479;SHT31;67769;51.972;5.668;2023-04-01T08:33:40;14.7;70.0
78479;SHT31;67769;51.972;5.668;2023-04-01T08:36:16;14.7;69.9
78479;SHT31;67769;51.972;5.668;2023-04-01T08:38:50;14.7;70.6
78479;SHT31;67769;51.972;5.668;2023-04-01T08:45:48;14.8;70.2
78479;SHT31;67769;51.972;5.668;2023-04-01T08:48:47;14.8;70.0
78479;SHT31;67769;51.972;5.668;2023-04-01T08:52:00;14.9;69.6
78479;SHT31;67769;51.972;5.668;2023-04-01T08:54:48;14.9;69.8
78479;SHT31;67769;51.972;5.668;2023-04-01T08:57:35;14.9;69.9
78479;SHT31;67769;51.972;5.668;2023-04-01T09:00:15;14.9;69.8
78479;SHT31;67769;51.972;5.668;2023-04-01T09:04:08;14.9;69.5
78479;SHT31;67769;51.972;5.668;2023-04-01T09:06:53;14.9;69.4
78479;SHT31;67769;51.972;5.668;2023-04-01T09:09:46;14.9;69.4
78479;SHT31;67769;51.972;5.668;2023-04-01T09:12:32;15.0;69.1
78479;SHT31;67769;51.972;5.668;2023-04-01T09:15:30;15.0;68.6
78479;SHT31;67769;51.972;5.668;2023-04-01T09:19:56;15.0;68.3
78479;SHT31;67769;51.972;5.668;2023-04-01T09:22:42;15.0;68.9
78479;SHT31;67769;51.972;5.668;2023-04-01T09:26:02;15.0;69.0
78479;SHT31;67769;51.972;5.668;2023-04-01T09:28:44;15.0;69.0
78479;SHT31;67769;51.972;5.668;2023-04-01T09:31:26;15.0;69.4
78479;SHT31;67769;51.972;5.668;2023-04-01T09:34:39;15.1;68.9
78479;SHT31;67769;51.972;5.668;2023-04-01T09:37:19;15.1;69.2
78479;SHT31;67769;51.972;5.668;2023-04-01T09:40:13;15.1;69.3
78479;SHT31;67769;51.972;5.668;2023-04-01T09:43:18;15.2;68.5
78479;SHT31;67769;51.972;5.668;2023-04-01T09:46:09;15.3;68.3
78479;SHT31;67769;51.972;5.668;2023-04-01T09:48:56;15.5;67.8
78479;SHT31;67769;51.972;5.668;2023-04-01T09:51:37;15.6;67.3
78479;SHT31;67769;51.972;5.668;2023-04-01T09:54:31;15.7;67.6
78479;SHT31;67769;51.972;5.668;2023-04-01T10:09:29;16.0;66.9
78479;SHT31;67769;51.972;5.668;2023-04-01T10:12:59;16.2;67.5
78479;SHT31;67769;51.972;5.668;2023-04-01T10:16:35;16.3;66.4
78479;SHT31;67769;51.972;5.668;2023-04-01T10:19:34;16.4;67.3
78479;SHT31;67769;51.972;5.668;2023-04-01T10:22:49;16.5;65.9
78479;SHT31;67769;51.972;5.668;2023-04-01T10:28:38;16.6;65.8
78479;SHT31;67769;51.972;5.668;2023-04-01T10:31:38;16.7;67.3
78479;SHT31;67769;51.972;5.668;2023-04-01T10:35:10;16.8;67.2
78479;SHT31;67769;51.972;5.668;2023-04-01T10:40:57;17.0;66.0
78479;SHT31;67769;51.972;5.668;2023-04-01T10:43:55;17.1;65.9
78479;SHT31;67769;51.972;5.668;2023-04-01T10:52:46;17.5;63.4
78479;SHT31;67769;51.972;5.668;2023-04-01T10:55:40;17.6;62.2
78479;SHT31;67769;51.972;5.668;2023-04-01T10:58:29;17.7;62.2
78479;SHT31;67769;51.972;5.668;2023-04-01T11:01:21;17.7;61.9
78479;SHT31;67769;51.972;5.668;2023-04-01T11:14:07;18.0;59.9
78479;SHT31;67769;51.972;5.668;2023-04-01T11:17:44;17.9;60.1
78479;SHT31;67769;51.972;5.668;2023-04-01T11:21:53;17.9;59.9
78479;SHT31;67769;51.972;5.668;2023-04-01T11:26:04;17.8;59.5
78479;SHT31;67769;51.972;5.668;2023-04-01T11:30:06;17.6;60.2
78479;SHT31;67769;51.972;5.668;2023-04-01T11:32:48;17.6;60.2
78479;SHT31;67769;51.972;5.668;2023-04-01T11:36:28;17.5;60.0
78479;SHT31;67769;51.972;5.668;2023-04-01T11:39:22;17.4;61.1
78479;SHT31;67769;51.972;5.668;2023-04-01T11:42:00;17.3;61.3
78479;SHT31;67769;51.972;5.668;2023-04-01T11:44:39;17.3;61.4
78479;SHT31;67769;51.972;5.668;2023-04-01T11:48:08;17.3;61.5
78479;SHT31;67769;51.972;5.668;2023-04-01T11:50:55;17.2;61.1
78479;SHT31;67769;51.972;5.668;2023-04-01T11:53:38;17.2;62.3
78479;SHT31;67769;51.972;5.668;2023-04-01T11:56:24;17.1;61.9
78479;SHT31;67769;51.972;5.668;2023-04-01T11:59:29;17.1;62.2
78479;SHT31;67769;51.972;5.668;2023-04-01T12:02:14;17.0;62.0
78479;SHT31;67769;51.972;5.668;2023-04-01T12:05:00;17.0;62.1
78479;SHT31;67769;51.972;5.668;2023-04-01T12:07:49;16.9;62.3
78479;SHT31;67769;51.972;5.668;2023-04-01T12:10:32;16.9;62.8
78479;SHT31;67769;51.972;5.668;2023-04-01T12:13:14;16.8;62.9
78479;SHT31;67769;51.972;5.668;2023-04-01T12:16:04;16.8;63.6
78479;SHT31;67769;51.972;5.668;2023-04-01T12:18:40;16.7;63.4
78479;SHT31;67769;51.972;5.668;2023-04-01T12:21:25;16.7;64.0
78479;SHT31;67769;51.972;5.668;2023-04-01T12:24:11;16.7;64.7
78479;SHT31;67769;51.972;5.668;2023-04-01T12:27:15;16.6;64.5
78479;SHT31;67769;51.972;5.668;2023-04-01T12:30:48;16.6;64.2
78479;SHT31;67769;51.972;5.668;2023-04-01T12:33:25;16.6;63.6
78479;SHT31;67769;51.972;5.668;2023-04-01T12:36:11;16.6;63.6
78479;SHT31;67769;51.972;5.668;2023-04-01T12:38:56;16.6;63.2
78479;SHT31;67769;51.972;5.668;2023-04-01T12:41:38;16.6;63.3
78479;SHT31;67769;51.972;5.668;2023-04-01T12:44:26;16.5;63.3
78479;SHT31;67769;51.972;5.668;2023-04-01T12:47:18;16.5;63.2
78479;SHT31;67769;51.972;5.668;2023-04-01T12:50:46;16.5;63.5
78479;SHT31;67769;51.972;5.668;2023-04-01T12:54:02;16.5;63.6
78479;SHT31;67769;51.972;5.668;2023-04-01T12:56:46;16.4;64.4
78479;SHT31;67769;51.972;5.668;2023-04-01T12:59:32;16.4;65.2
78479;SHT31;67769;51.972;5.668;2023-04-01T13:02:22;16.4;65.2
78479;SHT31;67769;51.972;5.668;2023-04-01T13:05:31;16.4;65.1
78479;SHT31;67769;51.972;5.668;2023-04-01T13:08:23;16.5;65.6
78479;SHT31;67769;51.972;5.668;2023-04-01T13:11:09;16.5;65.6
78479;SHT31;67769;51.972;5.668;2023-04-01T13:14:02;16.5;65.4
78479;SHT31;67769;51.972;5.668;2023-04-01T13:16:40;16.5;65.4
78479;SHT31;67769;51.972;5.668;2023-04-01T13:19:19;16.6;65.4
78479;SHT31;67769;51.972;5.668;2023-04-01T13:22:01;16.6;64.4
78479;SHT31;67769;51.972;5.668;2023-04-01T13:24:41;16.6;64.5
78479;SHT31;67769;51.972;5.668;2023-04-01T13:27:18;16.6;64.4
78479;SHT31;67769;51.972;5.668;2023-04-01T13:30:02;16.6;64.5
78479;SHT31;67769;51.972;5.668;2023-04-01T13:32:39;16.6;64.9
78479;SHT31;67769;51.972;5.668;2023-04-01T13:35:25;16.6;65.0
78479;SHT31;67769;51.972;5.668;2023-04-01T13:42:11;16.6;64.7
78479;SHT31;67769;51.972;5.668;2023-04-01T13:44:48;16.6;64.9
78479;SHT31;67769;51.972;5.668;2023-04-01T13:47:25;16.5;64.8
78479;SHT31;67769;51.972;5.668;2023-04-01T13:50:08;16.5;64.7
78479;SHT31;67769;51.972;5.668;2023-04-01T13:59:00;16.4;65.3
78479;SHT31;67769;51.972;5.668;2023-04-01T14:01:38;16.4;65.6
78479;SHT31;67769;51.972;5.668;2023-04-01T14:04:58;16.4;65.4
78479;SHT31;67769;51.972;5.668;2023-04-01T14:07:50;16.3;65.2
78479;SHT31;67769;51.972;5.668;2023-04-01T14:10:34;16.3;65.9
78479;SHT31;67769;51.972;5.668;2023-04-01T14:13:15;16.3;66.1
78479;SHT31;67769;51.972;5.668;2023-04-01T14:16:00;16.3;66.6
78479;SHT31;67769;51.972;5.668;2023-04-01T14:18:51;16.3;66.1
78479;SHT31;67769;51.972;5.668;2023-04-01T14:21:30;16.2;66.7
78479;SHT31;67769;51.972;5.668;2023-04-01T14:24:09;16.2;66.4
78479;SHT31;67769;51.972;5.668;2023-04-01T14:27:06;16.2;66.6
78479;SHT31;67769;51.972;5.668;2023-04-01T14:29:47;16.2;66.3
78479;SHT31;67769;51.972;5.668;2023-04-01T14:32:31;16.2;67.1
78479;SHT31;67769;51.972;5.668;2023-04-01T14:35:27;16.2;66.5
78479;SHT31;67769;51.972;5.668;2023-04-01T14:38:58;16.2;66.3
78479;SHT31;67769;51.972;5.668;2023-04-01T14:41:42;16.2;66.6
78479;SHT31;67769;51.972;5.668;2023-04-01T14:44:38;16.2;66.6
78479;SHT31;67769;51.972;5.668;2023-04-01T14:47:28;16.2;66.4
78479;SHT31;67769;51.972;5.668;2023-04-01T14:50:11;16.2;66.5
78479;SHT31;67769;51.972;5.668;2023-04-01T14:52:47;16.2;66.6
78479;SHT31;67769;51.972;5.668;2023-04-01T14:55:27;16.1;66.5
78479;SHT31;67769;51.972;5.668;2023-04-01T14:58:07;16.1;66.7
78479;SHT31;67769;51.972;5.668;2023-04-01T15:00:53;16.1;66.7
78479;SHT31;67769;51.972;5.668;2023-04-01T15:03:30;16.1;66.6
78479;SHT31;67769;51.972;5.668;2023-04-01T15:06:30;16.0;66.6
78479;SHT31;67769;51.972;5.668;2023-04-01T15:09:15;16.0;66.9
78479;SHT31;67769;51.972;5.668;2023-04-01T15:12:00;16.0;66.6
78479;SHT31;67769;51.972;5.668;2023-04-01T15:14:47;16.0;66.9
78479;SHT31;67769;51.972;5.668;2023-04-01T15:17:51;16.0;67.0
78479;SHT31;67769;51.972;5.668;2023-04-01T15:20:43;16.0;67.7
78479;SHT31;67769;51.972;5.668;2023-04-01T15:23:36;15.9;67.7
78479;SHT31;67769;51.972;5.668;2023-04-01T15:26:35;15.9;67.7
78479;SHT31;67769;51.972;5.668;2023-04-01T15:29:23;15.9;67.3
78479;SHT31;67769;51.972;5.668;2023-04-01T15:32:02;16.0;67.2
78479;SHT31;67769;51.972;5.668;2023-04-01T15:34:43;15.9;67.3
78479;SHT31;67769;51.972;5.668;2023-04-01T15:37:26;16.0;67.3
78479;SHT31;67769;51.972;5.668;2023-04-01T15:40:07;16.0;67.3
78479;SHT31;67769;51.972;5.668;2023-04-01T15:42:54;16.0;67.2
78479;SHT31;67769;51.972;5.668;2023-04-01T15:45:35;16.0;66.1
78479;SHT31;67769;51.972;5.668;2023-04-01T15:48:20;16.0;65.8
78479;SHT31;67769;51.972;5.668;2023-04-01T15:51:10;15.9;65.2
78479;SHT31;67769;51.972;5.668;2023-04-01T15:55:15;15.9;65.2
78479;SHT31;67769;51.972;5.668;2023-04-01T15:57:55;15.8;65.7
78479;SHT31;67769;51.972;5.668;2023-04-01T16:00:30;15.7;65.7
78479;SHT31;67769;51.972;5.668;2023-04-01T16:03:24;15.7;65.6
78479;SHT31;67769;51.972;5.668;2023-04-01T16:06:52;15.6;65.8
78479;SHT31;67769;51.972;5.668;2023-04-01T16:10:09;15.5;66.0
78479;SHT31;67769;51.972;5.668;2023-04-01T16:12:57;15.5;66.4
78479;SHT31;67769;51.972;5.668;2023-04-01T16:15:37;15.4;66.5
78479;SHT31;67769;51.972;5.668;2023-04-01T16:18:42;15.4;66.5
78479;SHT31;67769;51.972;5.668;2023-04-01T16:21:32;15.3;66.8
78479;SHT31;67769;51.972;5.668;2023-04-01T16:24:15;15.3;66.6
78479;SHT31;67769;51.972;5.668;2023-04-01T16:26:53;15.2;66.2
78479;SHT31;67769;51.972;5.668;2023-04-01T16:29:32;15.2;66.4
78479;SHT31;67769;51.972;5.668;2023-04-01T16:32:21;15.2;66.6
78479;SHT31;67769;51.972;5.668;2023-04-01T16:35:12;15.1;66.7
78479;SHT31;67769;51.972;5.668;2023-04-01T16:37:48;15.1;66.4
78479;SHT31;67769;51.972;5.668;2023-04-01T16:40:31;15.1;66.9
78479;SHT31;67769;51.972;5.668;2023-04-01T16:43:12;15.1;67.2
78479;SHT31;67769;51.972;5.668;2023-04-01T16:45:55;15.1;66.8
78479;SHT31;67769;51.972;5.668;2023-04-01T16:48:44;15.1;67.9
78479;SHT31;67769;51.972;5.668;2023-04-01T16:51:15;15.0;66.9
78479;SHT31;67769;51.972;5.668;2023-04-01T16:53:49;15.0;66.8
78479;SHT31;67769;51.972;5.668;2023-04-01T16:56:24;15.0;66.3
78479;SHT31;67769;51.972;5.668;2023-04-01T16:59:02;14.9;66.5
78479;SHT31;67769;51.972;5.668;2023-04-01T17:01:43;14.9;66.7
78479;SHT31;67769;51.972;5.668;2023-04-01T17:04:25;14.9;66.4
78479;SHT31;67769;51.972;5.668;2023-04-01T17:07:10;14.8;66.6
78479;SHT31;67769;51.972;5.668;2023-04-01T17:09:49;14.8;66.7
78479;SHT31;67769;51.972;5.668;2023-04-01T17:12:26;14.7;66.8
78479;SHT31;67769;51.972;5.668;2023-04-01T17:15:10;14.7;66.6
78479;SHT31;67769;51.972;5.668;2023-04-01T17:17:49;14.6;66.2
78479;SHT31;67769;51.972;5.668;2023-04-01T17:20:38;14.6;66.7
78479;SHT31;67769;51.972;5.668;2023-04-01T17:23:17;14.6;66.6
78479;SHT31;67769;51.972;5.668;2023-04-01T17:25:56;14.5;68.2
78479;SHT31;67769;51.972;5.668;2023-04-01T17:28:36;14.5;66.7
78479;SHT31;67769;51.972;5.668;2023-04-01T17:31:25;14.5;66.7
78479;SHT31;67769;51.972;5.668;2023-04-01T17:34:50;14.4;66.9
78479;SHT31;67769;51.972;5.668;2023-04-01T17:37:29;14.4;67.1
78479;SHT31;67769;51.972;5.668;2023-04-01T17:40:31;14.4;67.0
78479;SHT31;67769;51.972;5.668;2023-04-01T17:43:14;14.3;66.6
78479;SHT31;67769;51.972;5.668;2023-04-01T17:45:55;14.4;67.4
78479;SHT31;67769;51.972;5.668;2023-04-01T17:48:41;14.4;66.6
78479;SHT31;67769;51.972;5.668;2023-04-01T17:51:21;14.5;66.6
78479;SHT31;67769;51.972;5.668;2023-04-01T17:54:03;14.5;66.0
78479;SHT31;67769;51.972;5.668;2023-04-01T17:56:47;14.5;65.2
78479;SHT31;67769;51.972;5.668;2023-04-01T17:59:34;14.4;65.4
78479;SHT31;67769;51.972;5.668;2023-04-01T18:02:19;14.4;65.6
78479;SHT31;67769;51.972;5.668;2023-04-01T18:05:03;14.4;66.1
78479;SHT31;67769;51.972;5.668;2023-04-01T18:07:51;14.4;65.5
78479;SHT31;67769;51.972;5.668;2023-04-01T18:10:31;14.4;65.3
78479;SHT31;67769;51.972;5.668;2023-04-01T18:14:16;14.3;65.0
78479;SHT31;67769;51.972;5.668;2023-04-01T18:17:16;14.3;64.4
78479;SHT31;67769;51.972;5.668;2023-04-01T18:20:11;14.3;64.5
78479;SHT31;67769;51.972;5.668;2023-04-01T18:22:47;14.2;64.4
78479;SHT31;67769;51.972;5.668;2023-04-01T18:25:24;14.1;64.8
78479;SHT31;67769;51.972;5.668;2023-04-01T18:28:17;14.0;64.8
78479;SHT31;67769;51.972;5.668;2023-04-01T18:30:54;13.9;65.0
78479;SHT31;67769;51.972;5.668;2023-04-01T18:33:34;13.8;65.4
78479;SHT31;67769;51.972;5.668;2023-04-01T18:36:18;13.8;65.4
78479;SHT31;67769;51.972;5.668;2023-04-01T18:38:52;13.7;66.1